x

South Bermuda - 300 Nm Sse Of Bermuda (41049) Wave Buoy

8:50am - Mon 27th Apr 2015 All times are UTC.

  • Sig Wave height 8.5ft
  • Swell Direction
  • Peak Period 7s
  • Average Period 6s
  • Wind
    25mph, 31mph gusts
  • Sea Temp 77°f
  • Air Temp 77°f
  • Sea Pressure 1006.3mb

More Historic Weather Station data

Upgrade to MSW Pro to gain access to the past 30 days of data for over 8000 Wavebouys and Weather Stations around the globe.

Join Pro

Comparision Forecast

View Surf forecast
   
Mon 04/27 8:50am 8.5ft 7s 6s 25 31 mph 1006.3mb 77f 77f
7:50am 8.5ft 8s 6s 25 31 mph 1006.3mb 77f 77f
6:50am 9ft 7s 6s 22 29 mph 1006.4mb 77f 77f
5:50am 9.5ft 7s 6s 25 29 mph 1006.6mb 77f 77f
4:50am 9.5ft 7s 6s 25 29 mph 1007.1mb 77f 77f
3:50am 8ft 7s 6s 25 29 mph 1007.4mb 77f 78f
2:50am 8ft 6s 6s 27 31 mph 1007.6mb 77f 78f
1:50am 7.5ft 6s 6s 27 34 mph 1007.5mb 77f 78f
12:50am 7.5ft 6s 6s 27 34 mph 1007.2mb 77f 78f
Sun 04/26 11:50pm 7ft 11s 6s 25 31 mph 1007.1mb 77f 78f
10:50pm 6.5ft 10s 6s 27 31 mph 1007.6mb 77f 78f
9:50pm 7ft 10s 6s 22 29 mph 1008mb 77f 78f
8:50pm 6ft 11s 6s 20 22 mph 1008.1mb 77f 78f
7:50pm 7ft 11s 6s 20 25 mph 1008.5mb 77f 77f
6:50pm 7ft 10s 6s 22 27 mph 1009.1mb 77f 76f
5:50pm 7ft 11s 6s 22 27 mph 1009.9mb 77f 76f
4:50pm 7ft 10s 6s 22 27 mph 1010.8mb 77f 76f
3:50pm 6.5ft 10s 7s 20 25 mph 1011.3mb 77f 75f
2:50pm 7ft 11s 7s 18 22 mph 1012.1mb 77f 74f
1:50pm 7ft 11s 7s 16 18 mph 1011.9mb 76f 74f
12:50pm 7.5ft 11s 8s 13 18 mph 1011.8mb 76f 73f
11:50am 7ft 10s 8s 13 16 mph 1012.1mb 76f 72f
10:50am 8ft 11s 8s 11 13 mph 1012mb 76f 71f
9:50am 8.5ft 11s 8s 9 11 mph 1011.7mb 76f 71f
8:50am 9ft 11s 8s 7 9 mph 1011.9mb 77f 70f
7:50am 8.5ft 11s 8s 4 9 mph 1011.9mb 77f 70f
6:50am 9ft 11s 9s 4 7 mph 1012.5mb 77f 70f
5:50am 8ft 9s 8s 4 7 mph 1012.9mb 77f 70f
4:50am 8ft 9s 8s 2 7 mph 1014mb 77f 70f
3:50am 7ft 9s 7s 2 7 mph 1014.7mb 77f 70f
2:50am 7ft 9s 7s 7
mph
1015.1mb 77f 71f
1:50am 7ft 9s 7s 7 11 mph 1015.5mb 77f 71f
12:50am 6.5ft 9s 7s 7 11 mph 1015.3mb 77f 71f
Sat 04/25 11:50pm 6ft 8s 6s 9 11 mph 1014.5mb 77f 71f
10:50pm 6ft 9s 6s 11 16 mph 1013.7mb 77f 72f
9:50pm 7ft 9s 7s 13 20 mph 1013.5mb 77f 72f
8:50pm 6.5ft 8s 6s 13 18 mph 1013.1mb 77f 72f
7:50pm 7ft 8s 6s 13 18 mph 1012.8mb 77f 72f
6:50pm 7ft 8s 6s 16 18 mph 1012.9mb 77f 72f
5:50pm 6ft 8s 6s 16 20 mph 1013.4mb 77f 72f
4:50pm 6ft 8s 6s 16 22 mph 1013.8mb 77f 73f
8:50am 4.5ft 12s 6s 16 20 mph 1010.6mb 77f 76f
7:50am 4ft 11s 5s 13 16 mph 1010.2mb 77f 75f
6:50am 4ft 13s 6s 13 18 mph 1010.5mb 77f 75f
5:50am 4ft 11s 6s 16 18 mph 1011.4mb 77f 76f
4:50am 4.5ft 13s 6s 13 18 mph 1011.7mb 77f 76f
3:50am 4.5ft 11s 7s 13 16 mph 1012.2mb 77f 76f
2:50am 4ft 13s 6s 13 18 mph 1012.3mb 77f 76f
1:50am 4.5ft 13s 8s 13 16 mph 1012.2mb 77f 76f
12:50am 4.5ft 13s 7s 11 13 mph 1012.2mb 77f 76f
Fri 04/24 11:50pm 4.5ft 12s 8s 9 13 mph 1012.3mb 78f 76f
10:50pm 5ft 14s 9s 11 13 mph 1012.2mb 78f 76f
9:50pm 4.5ft 14s 8s 11 13 mph 1012.4mb 78f 76f
8:50pm 4.5ft 13s 8s 11 13 mph 1012.2mb 78f 76f
7:50pm 5ft 14s 9s 11 13 mph 1012mb 78f 76f
6:50pm 4.5ft 14s 8s 9 11 mph 1012.1mb 78f 76f
5:50pm 5ft 14s 9s 7 9 mph 1012.3mb 78f 76f
4:50pm 5ft 14s 8s 7 11 mph 1013.1mb 78f 75f
3:50pm 5ft 14s 9s 7 9 mph 1013.5mb 78f 75f
2:50pm 6ft 15s 9s 9
mph
1013.8mb 77f 75f
1:50pm 5.5ft 14s 9s 7 9 mph 1013.6mb 77f 75f
12:50pm 6ft 15s 9s 7 9 mph 1013.4mb 77f 75f
11:50am 5.5ft 15s 9s 7 9 mph 1013.5mb 77f 75f
10:50am 5ft 14s 8s 7 9 mph 1013.5mb 77f 75f
9:50am 6ft 14s 9s 7 11 mph 1012.9mb 77f 74f
8:50am 6ft 15s 9s 7 9 mph 1012.2mb 77f 74f
7:50am 6ft 15s 9s 7 9 mph 1012.4mb 77f 74f
6:50am 6ft 14s 9s 7 9 mph 1012.4mb 77f 74f
5:50am 7ft 14s 10s 4 7 mph 1012.5mb 77f 74f
4:50am 6ft 14s 9s 2 4 mph 1012.9mb 77f 74f
3:50am 6.5ft 15s 9s  -  2 mph 1013.7mb 77f 74f
2:50am 6ft 14s 9s  -  2 mph 1014.1mb 77f 74f
1:50am 7ft 15s 10s 2 4 mph 1014.4mb 77f 74f
12:50am 6.5ft 15s 10s 2 4 mph 1014.6mb 77f 74f
Thu 04/23 11:50pm 7ft 15s 10s 4 7 mph 1014.2mb 77f 74f
10:50pm 7ft 15s 10s 4 9 mph 1013.9mb 77f 74f
9:50pm 6ft 15s 9s 7 9 mph 1013.6mb 77f 74f
8:50pm 5.5ft 15s 9s 7 11 mph 1013.5mb 77f 74f
7:50pm 6ft 15s 9s 4 9 mph 1013.4mb 77f 74f
6:50pm 6ft 14s 9s 9 11 mph 1013.5mb 77f 74f
5:50pm 6ft 14s 9s 11 13 mph 1013.8mb 77f 75f
4:50pm 7ft 15s 9s 9 11 mph 1013.9mb 77f 75f
3:50pm 6.5ft 15s 9s 13 16 mph 1014.3mb 77f 75f
2:50pm 6ft 13s 8s 7
mph
1014.5mb 77f 74f
1:50pm 7ft 16s 9s 9 13 mph 1014.5mb 77f 73f
12:50pm 6ft 15s 9s 9 13 mph 1014.4mb 77f 76f
11:50am 6.5ft 14s 9s 7 9 mph 1014.4mb 77f 75f
10:50am 8ft 15s 10s 7 11 mph 1014mb 77f 74f